Aérodrome :
LOGIN :

S'inscrire | Disclaimer

   EN    FR    IT 

 










Légende :    VFR   VFR Marginal   IFR   IFR Intensif   IFR Très Intensif
Visi : 
Plafond : 
>= 8 km
>= 3000ft
5 à 8 km
1000 à 3000 ft
1500m à 5 km
500 à 1000 ft
800 à 1500m
200 à 500 ft
< 800m
< 200 ft
Symboles :   Orages  Brouillard  Fortes neiges  Fortes précipitations  Vent > 20 kt
SIGMETs :   Divers  Orages  Givrage  Turbulence  Onde Orograph.  Cendres Volcan.







- Altitude de l'aérodrome : 357 ft
- Code IATA : TUF
- Voir les cartes d'approche


LFOT - Tours

DERNIER METAR :
  • 241230Z AUTO 36009KT 320V050 9999 SCT035 OVC046 12/05 Q1028 NOSIG

METARs EXPIRÉS :
  • 241200Z AUTO 02007KT 350V070 9000 BKN038 OVC046 11/05 Q1028 NOSIG
  • 241130Z AUTO 36008KT 330V040 9999 BKN037 12/04 Q1028 NOSIG
  • 241100Z AUTO 02007KT 350V070 9999 OVC034 11/05 Q1028 NOSIG
  • 241030Z AUTO 04005KT 360V080 9000 FEW029 BKN038 11/05 Q1028 NOSIG
  • 241000Z AUTO VRB02KT 6000 OVC038 10/06 Q1028 NOSIG

TAF TAF LFOT
Valide du 24 à 12h jusqu'au 25 à 12h UTC


241100Z 2412/2512 01007KT 9999 SCT030 SCT050
PROB30
TEMPO 2502/2507 2500 MIFG
PROB40
TEMPO 2507/2509 BKN006
Pas de NOTAMs connus pour ce terrain.



MET'MAP, la Météo Aéronautique d'un coup d'oeil ! - Copyright ORBIFLY Décembre 2007 - Disclaimer

ORBIFLY MET'MAP TEAM :

Programmation & Développement : Alexandra Zaïnal
Conception & Développement : Baudouin d'Aumeries
Co-Programmation & Développement : Marc-Olivier Méhu
Soutien technique & logistique : Manuel Goepfert

Contact : metmap@orbifly.com




SOURCES & CREDITS :

   NOAA